createdAt,value
2023-01-27T00:00:16.765Z,62.52
2023-01-27T00:03:19.501Z,62.47
2023-01-27T00:06:21.214Z,62.74
2023-01-27T00:09:22.769Z,62.33
2023-01-27T00:12:44.875Z,62.54
2023-01-27T00:15:46.750Z,62.65
2023-01-27T00:18:48.357Z,62.37
2023-01-27T00:22:08.219Z,62.74
2023-01-27T00:25:09.805Z,62.71
2023-01-27T00:28:23.273Z,62.69
2023-01-27T00:31:43.222Z,62.56
2023-01-27T00:34:44.852Z,62.60
2023-01-27T00:37:47.314Z,62.48
2023-01-27T00:41:08.804Z,62.49
2023-01-27T00:44:13.234Z,62.52
2023-01-27T00:47:14.953Z,62.69
2023-01-27T00:50:16.857Z,62.84
2023-01-27T00:53:18.444Z,62.70
2023-01-27T00:56:20.003Z,62.50
2023-01-27T00:59:22.692Z,62.58
2023-01-27T01:02:24.354Z,62.93
2023-01-27T01:05:25.934Z,62.74
2023-01-27T01:08:27.590Z,62.69
2023-01-27T01:11:29.139Z,62.83
2023-01-27T01:14:30.741Z,62.62
2023-01-27T01:17:32.519Z,62.47
2023-01-27T01:20:42.574Z,62.71
2023-01-27T01:23:45.718Z,62.50
2023-01-27T01:26:47.228Z,62.49
2023-01-27T01:29:48.825Z,62.53
2023-01-27T01:32:50.340Z,62.83
2023-01-27T01:35:51.885Z,62.59
2023-01-27T01:38:56.754Z,62.55
2023-01-27T01:41:58.663Z,62.83
2023-01-27T01:45:34.098Z,62.70
2023-01-27T01:48:58.675Z,62.45
2023-01-27T01:52:05.312Z,62.75
2023-01-27T01:55:07.086Z,62.59
2023-01-27T01:58:11.935Z,62.32
2023-01-27T02:01:17.074Z,62.41
2023-01-27T02:04:23.899Z,62.72
2023-01-27T02:07:43.157Z,62.63
2023-01-27T02:10:44.949Z,62.52
2023-01-27T02:13:47.082Z,62.61
2023-01-27T02:16:48.679Z,62.43
2023-01-27T02:20:09.247Z,62.59
2023-01-27T02:23:22.142Z,62.54
2023-01-27T02:26:28.350Z,62.66
2023-01-27T02:29:29.880Z,62.57
2023-01-27T02:32:31.532Z,62.48
2023-01-27T02:35:56.427Z,62.39
2023-01-27T02:38:59.634Z,62.75
2023-01-27T02:42:05.842Z,62.56
2023-01-27T02:45:07.814Z,63.00
2023-01-27T02:48:09.340Z,62.45
2023-01-27T02:51:11.142Z,62.59
2023-01-27T02:54:12.760Z,62.81
2023-01-27T02:57:14.366Z,62.85
2023-01-27T03:00:16.167Z,62.53
2023-01-27T03:03:17.780Z,62.81
2023-01-27T03:06:20.053Z,62.72
2023-01-27T03:09:21.612Z,62.82
2023-01-27T03:12:23.211Z,62.68
2023-01-27T03:15:43.433Z,62.78
2023-01-27T03:18:49.707Z,62.58
2023-01-27T03:21:52.826Z,62.59
2023-01-27T03:24:54.575Z,62.59
2023-01-27T03:27:56.856Z,62.63
2023-01-27T03:31:03.345Z,62.52
2023-01-27T03:34:05.080Z,62.91
2023-01-27T03:37:25.522Z,62.70
2023-01-27T03:40:46.539Z,62.76
2023-01-27T03:44:06.529Z,62.92
2023-01-27T03:47:08.105Z,62.56
2023-01-27T03:50:11.246Z,62.96
2023-01-27T03:53:12.802Z,62.81
2023-01-27T03:56:16.140Z,62.91
2023-01-27T03:59:17.697Z,62.90
2023-01-27T04:02:37.840Z,62.74
2023-01-27T04:05:58.186Z,62.98
2023-01-27T04:09:00.325Z,62.72
2023-01-27T04:12:06.649Z,63.02
2023-01-27T04:15:08.695Z,62.66
2023-01-27T04:18:10.247Z,62.69
2023-01-27T04:21:13.249Z,62.84
2023-01-27T04:24:25.132Z,62.67
2023-01-27T04:27:27.316Z,62.84
2023-01-27T04:30:28.883Z,63.01
2023-01-27T04:33:30.552Z,63.19
2023-01-27T04:36:32.158Z,62.80
2023-01-27T04:39:34.548Z,63.04
2023-01-27T04:42:36.113Z,63.03
2023-01-27T04:45:37.661Z,62.95
2023-01-27T04:48:39.229Z,63.01
2023-01-27T04:51:41.142Z,63.00
2023-01-27T04:54:42.809Z,63.00
2023-01-27T04:57:44.358Z,63.16
2023-01-27T05:00:45.888Z,63.11
2023-01-27T05:03:47.749Z,62.97
2023-01-27T05:06:49.317Z,62.94
2023-01-27T05:09:50.885Z,63.14
2023-01-27T05:12:52.425Z,63.12
2023-01-27T05:16:06.110Z,62.83
2023-01-27T05:19:09.130Z,62.81
2023-01-27T05:22:11.280Z,62.97
2023-01-27T05:25:13.091Z,63.30
2023-01-27T05:28:15.062Z,63.06
2023-01-27T05:31:22.760Z,63.11
2023-01-27T05:34:24.500Z,63.02
2023-01-27T05:37:26.897Z,62.82
2023-01-27T05:40:28.473Z,63.21
2023-01-27T05:43:31.546Z,63.24
2023-01-27T05:46:33.628Z,63.10
2023-01-27T05:49:35.761Z,63.00
2023-01-27T05:52:37.281Z,63.13
2023-01-27T05:55:38.825Z,62.78
2023-01-27T05:58:40.745Z,62.96
2023-01-27T06:01:42.422Z,62.90
2023-01-27T06:04:44.005Z,63.46
2023-01-27T06:07:45.538Z,63.42
2023-01-27T06:10:47.145Z,63.14
2023-01-27T06:13:49.076Z,63.09
2023-01-27T06:16:50.610Z,62.81
2023-01-27T06:19:52.160Z,62.87
2023-01-27T06:22:53.755Z,63.15
2023-01-27T06:25:56.218Z,62.92
2023-01-27T06:28:58.033Z,62.95
2023-01-27T06:31:59.589Z,62.68
2023-01-27T06:35:01.125Z,62.88
2023-01-27T06:38:04.580Z,62.69
2023-01-27T06:41:06.396Z,62.89
2023-01-27T06:44:07.953Z,62.80
2023-01-27T06:47:09.796Z,62.90
2023-01-27T06:50:12.399Z,62.81
2023-01-27T06:53:14.350Z,62.97
2023-01-27T06:56:17.477Z,62.79
2023-01-27T06:59:19.077Z,62.77
2023-01-27T07:02:20.622Z,63.10
2023-01-27T07:05:22.260Z,62.71
2023-01-27T07:08:23.891Z,62.66
2023-01-27T07:11:25.535Z,62.63
2023-01-27T07:14:27.826Z,62.91
2023-01-27T07:17:29.373Z,62.68
2023-01-27T07:20:32.340Z,62.86
2023-01-27T07:23:33.921Z,62.70
2023-01-27T07:26:35.482Z,62.74
2023-01-27T07:29:36.992Z,62.89
2023-01-27T07:32:38.554Z,62.89
2023-01-27T07:35:41.899Z,62.90
2023-01-27T07:38:43.428Z,62.88
2023-01-27T07:41:45.002Z,63.09
2023-01-27T07:44:46.565Z,63.18
2023-01-27T07:47:48.389Z,62.85
2023-01-27T07:50:49.969Z,63.09
2023-01-27T07:53:52.090Z,63.01
2023-01-27T07:56:53.614Z,62.91
2023-01-27T07:59:56.632Z,63.20
2023-01-27T08:03:00.045Z,63.08
2023-01-27T08:06:12.652Z,62.93
2023-01-27T08:09:14.183Z,62.78
2023-01-27T08:12:16.090Z,63.99
2023-01-27T08:15:19.154Z,63.36
2023-01-27T08:18:20.905Z,62.83
2023-01-27T08:21:22.525Z,62.93
2023-01-27T08:24:24.132Z,63.04
2023-01-27T08:27:25.685Z,63.24
2023-01-27T08:30:27.744Z,62.96
2023-01-27T08:33:29.316Z,63.22
2023-01-27T08:36:30.870Z,63.03
2023-01-27T08:39:32.948Z,62.73
2023-01-27T08:42:34.479Z,62.75
2023-01-27T08:45:36.723Z,62.92
2023-01-27T08:48:38.611Z,63.23
2023-01-27T08:51:40.995Z,63.10
2023-01-27T08:54:42.576Z,63.25
2023-01-27T08:57:44.339Z,62.88
2023-01-27T09:00:45.889Z,63.25
2023-01-27T09:03:48.378Z,63.34
2023-01-27T09:06:50.453Z,62.94
2023-01-27T09:09:58.278Z,63.38
2023-01-27T09:13:09.801Z,63.13
2023-01-27T09:16:12.600Z,63.07
2023-01-27T09:19:14.179Z,63.04
2023-01-27T09:22:15.713Z,63.04
2023-01-27T09:25:17.719Z,62.97
2023-01-27T09:28:19.304Z,63.32
2023-01-27T09:31:20.999Z,63.11
2023-01-27T09:34:22.631Z,64.21
2023-01-27T09:37:26.904Z,63.42
2023-01-27T09:41:27.164Z,63.34
2023-01-27T09:44:46.785Z,62.75
2023-01-27T09:48:15.646Z,62.76
2023-01-27T09:51:44.641Z,63.13
2023-01-27T09:54:46.171Z,63.19
2023-01-27T09:58:03.976Z,63.01
2023-01-27T10:01:30.128Z,62.96
2023-01-27T10:04:49.744Z,63.52
2023-01-27T10:08:06.287Z,63.15
2023-01-27T10:11:07.774Z,63.36
2023-01-27T10:14:34.258Z,63.22
2023-01-27T10:17:57.617Z,63.37
2023-01-27T10:21:20.150Z,63.05
2023-01-27T10:24:37.196Z,63.14
2023-01-27T10:27:47.057Z,63.39
2023-01-27T10:31:03.908Z,62.98
2023-01-27T10:34:31.261Z,63.12
2023-01-27T10:37:32.797Z,63.46
2023-01-27T10:40:37.403Z,63.00
2023-01-27T10:43:54.623Z,63.10
2023-01-27T10:47:11.341Z,63.01
2023-01-27T10:50:21.729Z,63.21
2023-01-27T10:53:34.584Z,63.03
2023-01-27T10:56:42.658Z,63.00
2023-01-27T11:00:18.016Z,62.92
2023-01-27T11:03:43.804Z,63.28
2023-01-27T11:06:47.236Z,63.38
2023-01-27T11:09:56.056Z,63.32
2023-01-27T11:12:59.409Z,63.23
2023-01-27T11:16:03.360Z,63.02
2023-01-27T11:19:22.618Z,63.54
2023-01-27T11:22:35.336Z,62.87
2023-01-27T11:26:00.197Z,62.98
2023-01-27T11:29:13.559Z,63.22
2023-01-27T11:32:49.255Z,63.25
2023-01-27T11:35:52.746Z,62.82
2023-01-27T11:38:56.426Z,63.24
2023-01-27T11:41:58.075Z,63.03
2023-01-27T11:45:01.709Z,63.20
2023-01-27T11:48:07.963Z,63.31
2023-01-27T11:51:17.496Z,63.28
2023-01-27T11:54:23.603Z,63.29
2023-01-27T11:57:27.813Z,62.69
2023-01-27T12:00:38.466Z,62.80
2023-01-27T12:03:56.065Z,63.46
2023-01-27T12:07:20.149Z,63.49
2023-01-27T12:10:36.454Z,62.97
2023-01-27T12:13:49.030Z,62.79
2023-01-27T12:16:52.721Z,62.73
2023-01-27T12:19:59.085Z,62.81
2023-01-27T12:23:18.834Z,63.00
2023-01-27T12:26:36.640Z,62.85
2023-01-27T12:29:42.132Z,63.00
2023-01-27T12:32:47.306Z,62.77
2023-01-27T12:35:50.308Z,62.69
2023-01-27T12:38:58.441Z,62.74
2023-01-27T12:41:59.995Z,62.78
2023-01-27T12:45:33.595Z,62.96
2023-01-27T12:48:50.104Z,62.79
2023-01-27T12:51:55.113Z,62.80
2023-01-27T12:54:56.995Z,62.80
2023-01-27T12:57:59.000Z,62.90
2023-01-27T13:01:23.158Z,62.85
2023-01-27T13:04:27.140Z,63.41
2023-01-27T13:07:42.373Z,63.18
2023-01-27T13:10:57.230Z,62.50
2023-01-27T13:13:58.966Z,62.42
2023-01-27T13:17:00.762Z,63.08
2023-01-27T13:20:14.451Z,62.92
2023-01-27T13:23:31.483Z,62.79
2023-01-27T13:26:37.663Z,62.73
2023-01-27T13:29:41.932Z,62.80
2023-01-27T13:32:47.602Z,62.40
2023-01-27T13:36:12.568Z,62.40
2023-01-27T13:39:27.097Z,62.66
2023-01-27T13:42:46.433Z,62.62
2023-01-27T13:45:55.616Z,62.27
2023-01-27T13:49:13.918Z,62.38
2023-01-27T13:52:15.509Z,62.45
2023-01-27T13:55:22.547Z,62.38
2023-01-27T13:58:24.060Z,62.62
2023-01-27T14:01:37.876Z,62.36
2023-01-27T14:05:26.287Z,62.76
2023-01-27T14:08:41.068Z,62.38
2023-01-27T14:11:48.160Z,62.55
2023-01-27T14:15:12.814Z,62.27
2023-01-27T14:18:22.345Z,62.58
2023-01-27T14:21:47.632Z,62.72
2023-01-27T14:25:20.295Z,62.54
2023-01-27T14:28:54.116Z,62.53
2023-01-27T14:32:37.334Z,62.65
2023-01-27T14:35:44.719Z,62.44
2023-01-27T14:39:00.368Z,62.37
2023-01-27T14:45:32.534Z,62.49
2023-01-27T14:48:59.459Z,62.29
2023-01-27T14:52:21.296Z,62.22
2023-01-27T14:55:42.858Z,62.35
2023-01-27T14:58:44.476Z,62.13
2023-01-27T15:01:56.031Z,62.26
2023-01-27T15:05:14.524Z,62.34
2023-01-27T15:08:30.423Z,62.24
2023-01-27T15:11:52.071Z,62.10
2023-01-27T15:15:23.823Z,62.09
2023-01-27T15:18:47.092Z,62.48
2023-01-27T15:22:06.938Z,62.51
2023-01-27T15:25:22.957Z,62.37
2023-01-27T15:28:29.458Z,62.23
2023-01-27T15:31:32.074Z,62.03
2023-01-27T15:34:33.846Z,62.12
2023-01-27T15:37:55.914Z,62.32
2023-01-27T15:41:00.421Z,62.12
2023-01-27T15:44:25.892Z,62.16
2023-01-27T15:47:32.701Z,62.33
2023-01-27T15:50:38.503Z,62.28
2023-01-27T15:53:45.220Z,61.95
2023-01-27T15:56:52.156Z,62.33
2023-01-27T15:59:59.511Z,61.87
2023-01-27T16:03:04.221Z,62.18
2023-01-27T16:06:09.823Z,62.08
2023-01-27T16:09:40.552Z,62.12
2023-01-27T16:12:48.452Z,62.02
2023-01-27T16:16:18.691Z,61.90
2023-01-27T16:19:30.222Z,62.06
2023-01-27T16:22:35.547Z,61.94
2023-01-27T16:25:45.426Z,62.04
2023-01-27T16:28:52.135Z,61.83
2023-01-27T16:32:00.252Z,62.09
2023-01-27T16:35:15.811Z,61.92
2023-01-27T16:38:20.433Z,61.66
2023-01-27T16:41:30.898Z,61.60
2023-01-27T16:44:41.821Z,61.61
2023-01-27T16:47:49.309Z,61.50
2023-01-27T16:50:54.462Z,61.43
2023-01-27T16:54:01.261Z,61.74
2023-01-27T16:57:04.964Z,61.21
2023-01-27T17:00:18.025Z,61.33
2023-01-27T17:03:46.059Z,61.39
2023-01-27T17:06:49.446Z,61.28
2023-01-27T17:09:53.788Z,61.41
2023-01-27T17:12:55.371Z,61.32
2023-01-27T17:15:58.740Z,60.84
2023-01-27T17:19:28.231Z,61.22
2023-01-27T17:22:41.429Z,60.93
2023-01-27T17:25:43.221Z,61.12
2023-01-27T17:28:46.797Z,61.36
2023-01-27T17:31:49.588Z,61.00
2023-01-27T17:34:54.691Z,61.00
2023-01-27T17:38:16.149Z,60.93
2023-01-27T17:41:32.855Z,61.15
2023-01-27T17:44:34.517Z,60.87
2023-01-27T17:47:36.063Z,61.23
2023-01-27T17:50:39.503Z,60.98
2023-01-27T17:53:42.820Z,60.76
2023-01-27T17:56:44.520Z,60.67
2023-01-27T17:59:56.268Z,61.07
2023-01-27T18:03:02.457Z,60.82
2023-01-27T18:06:06.370Z,61.07
2023-01-27T18:09:25.684Z,60.84
2023-01-27T18:12:37.111Z,60.92
2023-01-27T18:15:43.006Z,60.96
2023-01-27T18:18:45.585Z,61.08
2023-01-27T18:21:47.263Z,61.28
2023-01-27T18:24:52.122Z,61.08
2023-01-27T18:27:55.429Z,60.67
2023-01-27T18:30:57.088Z,60.70
2023-01-27T18:34:21.099Z,60.84
2023-01-27T18:37:36.340Z,60.67
2023-01-27T18:40:37.960Z,60.47
2023-01-27T18:43:39.518Z,60.43
2023-01-27T18:46:41.105Z,60.45
2023-01-27T18:49:43.264Z,60.46
2023-01-27T18:52:46.082Z,60.71
2023-01-27T18:55:48.003Z,60.69
2023-01-27T18:58:49.627Z,60.72
2023-01-27T19:01:51.310Z,60.72
2023-01-27T19:04:52.986Z,60.84
2023-01-27T19:07:54.825Z,60.54
2023-01-27T19:10:56.377Z,60.68
2023-01-27T19:13:58.057Z,60.87
2023-01-27T19:16:59.611Z,60.86
2023-01-27T19:20:01.190Z,60.89
2023-01-27T19:23:02.744Z,60.83
2023-01-27T19:26:10.438Z,60.80
2023-01-27T19:29:12.035Z,60.71
2023-01-27T19:32:15.406Z,60.82
2023-01-27T19:35:17.080Z,60.89
2023-01-27T19:38:18.794Z,60.64
2023-01-27T19:41:20.377Z,60.69
2023-01-27T19:44:21.926Z,60.75
2023-01-27T19:47:23.479Z,60.58
2023-01-27T19:50:32.237Z,60.43
2023-01-27T19:53:34.106Z,60.57
2023-01-27T19:56:36.247Z,60.87
2023-01-27T19:59:37.824Z,60.86
2023-01-27T20:02:39.574Z,60.92
2023-01-27T20:05:41.160Z,60.81
2023-01-27T20:08:42.820Z,60.89
2023-01-27T20:11:44.665Z,60.71
2023-01-27T20:14:46.379Z,60.91
2023-01-27T20:17:47.924Z,60.77
2023-01-27T20:20:49.573Z,61.03
2023-01-27T20:23:51.799Z,60.84
2023-01-27T20:26:53.624Z,60.70
2023-01-27T20:29:55.197Z,60.74
2023-01-27T20:32:56.736Z,60.75
2023-01-27T20:35:58.258Z,60.95
2023-01-27T20:38:59.801Z,60.67
2023-01-27T20:42:01.343Z,60.61
2023-01-27T20:45:03.069Z,60.80
2023-01-27T20:48:04.916Z,60.64
2023-01-27T20:51:11.962Z,60.69
2023-01-27T20:54:13.506Z,60.53
2023-01-27T20:57:15.359Z,60.84
2023-01-27T21:00:19.316Z,60.75
2023-01-27T21:03:22.073Z,60.57
2023-01-27T21:06:23.742Z,60.65
2023-01-27T21:09:25.292Z,60.70
2023-01-27T21:12:29.410Z,60.53
2023-01-27T21:15:31.048Z,60.80
2023-01-27T21:18:32.687Z,60.58
2023-01-27T21:21:34.266Z,60.41
2023-01-27T21:24:35.832Z,60.53
2023-01-27T21:27:37.456Z,60.86
2023-01-27T21:30:39.029Z,60.55
2023-01-27T21:33:40.638Z,60.66
2023-01-27T21:36:42.197Z,60.58
2023-01-27T21:39:44.039Z,60.76
2023-01-27T21:43:03.843Z,60.76
2023-01-27T21:46:05.604Z,60.79
2023-01-27T21:49:07.145Z,60.75
2023-01-27T21:52:08.693Z,60.58
2023-01-27T21:55:14.102Z,60.20
2023-01-27T21:58:16.014Z,60.87
2023-01-27T22:01:17.695Z,60.55
2023-01-27T22:04:19.334Z,60.73
2023-01-27T22:07:20.966Z,60.57
2023-01-27T22:10:27.404Z,60.51
2023-01-27T22:13:29.059Z,60.35
2023-01-27T22:16:30.623Z,60.35
2023-01-27T22:19:33.385Z,60.21
2023-01-27T22:22:34.957Z,60.13
2023-01-27T22:25:36.519Z,60.06
2023-01-27T22:28:38.074Z,60.06
2023-01-27T22:31:41.820Z,60.18
2023-01-27T22:34:44.451Z,60.15
2023-01-27T22:37:46.551Z,59.99
2023-01-27T22:40:55.657Z,59.96
2023-01-27T22:43:57.205Z,60.21
2023-01-27T22:46:58.783Z,60.06
2023-01-27T22:50:00.343Z,59.97
2023-01-27T22:53:01.954Z,60.14
2023-01-27T22:56:04.696Z,60.21
2023-01-27T22:59:06.224Z,60.16
2023-01-27T23:02:07.762Z,59.90
2023-01-27T23:05:09.562Z,60.24
2023-01-27T23:08:11.630Z,60.12
2023-01-27T23:11:13.236Z,60.11
2023-01-27T23:14:14.828Z,59.87
2023-01-27T23:17:16.544Z,60.15
2023-01-27T23:20:18.293Z,59.99
2023-01-27T23:23:20.578Z,59.80
2023-01-27T23:26:22.115Z,59.94
2023-01-27T23:29:25.330Z,59.88
2023-01-27T23:32:27.733Z,60.14
2023-01-27T23:35:29.280Z,59.92
2023-01-27T23:38:33.831Z,60.23
2023-01-27T23:41:35.642Z,60.17
2023-01-27T23:44:37.308Z,60.22
2023-01-27T23:47:38.821Z,60.39
2023-01-27T23:50:40.386Z,60.34
2023-01-27T23:53:41.942Z,60.54
2023-01-27T23:56:43.507Z,60.45
2023-01-27T23:59:45.062Z,60.54
